Latest Weather Observations for Casino

IDN60801

Issued at 8:35 pm EST Tuesday 30 September 2014 (issued every 30 minutes, with the page automatically refreshed every 10 minutes)

About weather observations | Map of weather stations | Latest weather observations for NSW | Other Formats
Station Details ID: 058208 Name: CASINO AIRPORT AWS Lat: -28.88 Lon: 153.06 Height: 20.9 m
Data from the previous 72 hours. | See also: Recent months at Casino
Date/Time
EST
Temp
°C
App
Temp
°C
Dew
Point
Rel
Hum
%
Delta-T
°C
Wind Press
QNH
hPa
Press
MSL
hPa
Rain
since 9 am
mm
Dir
 
Spd
km/h
Gust
km/h
Spd
kts
Gust
kts
30/08:30pm 18.1 19.4 14.2 78 2.2 S 0 6 0 3 1016.0 1015.9 0.0
30/08:00pm 19.2 20.6 14.5 74 2.7 SSE 0 0 0 0 1015.8 1015.7 0.0
30/07:30pm 19.6 19.9 14.4 72 3.0 SSE 6 7 3 4 1015.6 1015.5 0.0
30/07:00pm 20.0 19.6 14.1 69 3.4 SE 9 11 5 6 1015.3 1015.2 0.0
30/06:30pm 21.0 20.3 14.4 66 3.9 ESE 11 11 6 6 1014.9 1014.8 0.0
30/06:00pm 22.8 22.4 14.1 58 5.1 ENE 9 11 5 6 1014.6 1014.5 0.0
30/05:30pm 24.6 23.4 14.1 52 6.2 NE 13 17 7 9 1014.3 1014.2 0.0
30/05:00pm 27.0 25.3 14.7 47 7.4 ENE 17 20 9 11 1014.1 1014.0 0.0
30/04:30pm 28.6 26.3 14.1 41 8.7 ENE 19 24 10 13 1014.1 1014.0 0.0
30/04:00pm 30.5 28.6 11.9 31 10.9 NE 13 20 7 11 1014.3 1014.2 0.0
30/03:30pm 31.3 28.6 8.9 25 12.5 NNE 13 20 7 11 1014.3 1014.2 0.0
30/03:00pm 31.3 28.8 6.4 21 13.4 N 9 19 5 10 1014.4 1014.3 0.0
30/02:30pm 31.5 29.6 9.1 25 12.6 NNE 9 13 5 7 1014.7 1014.6 0.0
30/02:00pm 32.0 30.2 10.7 27 12.3 NNW 11 19 6 10 1014.9 1014.8 0.0
30/01:30pm 31.2 29.7 10.5 28 11.9 NW 9 17 5 9 1015.3 1015.2 0.0
30/01:00pm 30.9 28.9 10.3 28 11.7 NNW 11 17 6 9 1015.7 1015.6 0.0
30/12:30pm 30.2 28.2 10.2 29 11.4 NNW 11 19 6 10 1016.3 1016.2 0.0
30/12:00pm 29.7 27.9 12.2 34 10.2 N 13 20 7 11 1016.8 1016.7 0.0
30/11:30am 29.4 27.3 12.3 34 10.0 N 15 22 8 12 1017.1 1017.0 0.0
30/11:00am 28.9 27.9 12.3 36 9.7 WNW 9 17 5 9 1017.7 1017.6 0.0
30/10:30am 27.9 26.8 13.1 40 8.7 N 11 17 6 9 1018.1 1018.0 0.0
30/10:00am 27.1 25.6 13.1 42 8.2 NW 13 19 7 10 1018.6 1018.5 0.0
30/09:30am 26.3 25.0 13.8 46 7.4 NNW 13 19 7 10 1019.0 1018.9 0.0
30/09:00am 25.1 23.6 13.0 47 7.0 N 13 17 7 9 1019.2 1019.1 0.0
30/08:30am 23.6 21.0 13.2 52 6.0 NNW 19 24 10 13 1019.2 1019.1 0.0
30/08:00am 21.2 20.5 14.4 65 4.0 N 11 15 6 8 1019.2 1019.1 0.0
30/07:30am 18.9 18.4 13.7 72 3.0 N 9 13 5 7 1019.2 1019.1 0.0
30/07:00am 16.1 17.0 13.0 82 1.7 CALM 0 0 0 0 1019.2 1019.1 0.0
30/06:30am 14.2 14.9 12.1 87 1.1 CALM 0 0 0 0 1019.0 1018.9 0.0
30/06:00am 11.9 12.1 10.5 91 0.7 CALM 0 0 0 0 1018.8 1018.7 0.0
30/05:30am 11.2 10.3 9.3 88 1.0 NW 4 6 2 3 1018.4 1018.3 0.0
30/05:00am 11.7 10.5 9.4 86 1.2 WNW 6 7 3 4 1018.1 1018.0 0.0
30/04:30am 14.0 12.7 11.3 84 1.4 WNW 9 11 5 6 1017.8 1017.7 0.0
30/04:00am 13.7 12.7 10.9 83 1.5 WNW 7 7 4 4 1017.7 1017.6 0.0
30/03:30am 14.6 13.3 11.4 81 1.7 WNW 9 13 5 7 1017.6 1017.5 0.0
30/03:00am 15.2 14.1 12.1 82 1.7 W 9 13 5 7 1017.5 1017.4 0.0
30/02:30am 15.2 14.4 11.6 79 1.9 WNW 7 11 4 6 1017.5 1017.4 0.0
30/02:00am 15.8 14.6 11.6 76 2.3 WNW 9 11 5 6 1017.7 1017.6 0.0
30/01:30am 16.8 14.8 11.5 71 2.9 NW 13 17 7 9 1017.6 1017.5 0.0
30/01:00am 17.6 15.7 11.8 69 3.2 NW 13 19 7 10 1017.8 1017.7 0.0
30/12:30am 18.0 15.8 12.0 68 3.3 NNW 15 20 8 11 1017.9 1017.8 0.0
30/12:00am 17.4 15.9 13.1 76 2.4 NNW 13 17 7 9 1018.0 1017.9 0.0
 
Date/Time
EST
Temp
°C
App
Temp
°C
Dew
Point
Rel
Hum
%
Delta-T
°C
Wind Press
QNH
hPa
Press
MSL
hPa
Rain
since 9 am
mm
Dir
 
Spd
km/h
Gust
km/h
Spd
kts
Gust
kts
29/11:30pm 14.9 13.9 11.1 78 2.0 N 7 9 4 5 1018.2 1018.1 0.0
29/11:00pm 15.8 16.7 14.0 89 1.0 N 2 7 1 4 1018.2 1018.1 0.0
29/10:30pm 15.2 15.9 12.3 83 1.6 CALM 0 0 0 0 1018.2 1018.1 0.0
29/10:00pm 16.0 16.7 13.5 85 1.4 SSE 2 7 1 4 1018.3 1018.2 0.0
29/09:30pm 16.5 16.4 13.4 82 1.7 SE 6 7 3 4 1018.2 1018.1 0.0
29/09:00pm 16.6 16.4 13.1 80 2.0 SE 6 9 3 5 1018.1 1018.0 0.0
29/08:30pm 17.5 17.5 13.6 78 2.2 SE 6 9 3 5 1017.9 1017.8 0.0
29/08:00pm 17.5 16.6 13.6 78 2.2 ESE 11 13 6 7 1017.6 1017.5 0.0
29/07:30pm 18.4 17.9 13.9 75 2.6 SE 9 11 5 6 1017.1 1017.0 0.0
29/07:00pm 19.2 18.7 13.8 71 3.1 E 9 9 5 5 1016.7 1016.6 0.0
29/06:30pm 19.7 19.6 13.2 66 3.7 E 6 7 3 4 1016.5 1016.4 0.0
29/06:00pm 21.2 20.1 13.1 60 4.6 NE 11 13 6 7 1016.1 1016.0 0.0
29/05:30pm 23.9 21.8 13.7 53 6.0 NE 17 20 9 11 1015.8 1015.7 0.0
29/05:00pm 26.6 25.0 10.3 36 9.1 NE 9 15 5 8 1015.5 1015.4 0.0
29/04:30pm 27.7 26.0 10.0 33 9.9 ENE 9 13 5 7 1015.5 1015.4 0.0
29/04:00pm 28.1 26.3 9.4 31 10.4 NE 9 15 5 8 1015.6 1015.5 0.0
29/03:30pm 28.1 26.4 9.9 32 10.2 N 9 13 5 7 1015.5 1015.4 0.0
29/03:00pm 28.3 26.8 10.5 33 10.1 N 9 17 5 9 1015.5 1015.4 0.0
29/02:30pm 28.3 26.3 10.0 32 10.3 NE 11 17 6 9 1015.6 1015.5 0.0
29/02:00pm 27.5 24.9 9.3 32 10.0 N 13 24 7 13 1015.9 1015.8 0.0
29/01:30pm 28.2 26.1 9.9 32 10.2 WNW 11 19 6 10 1016.5 1016.4 0.0
29/01:00pm 27.0 25.7 9.8 34 9.5 NNW 7 11 4 6 1016.9 1016.8 0.0
29/12:30pm 26.8 25.8 12.4 40 8.3 NNW 9 15 5 8 1017.5 1017.4 0.0
29/12:00pm 25.8 23.9 10.4 38 8.6 NW 11 15 6 8 1017.9 1017.8 0.0
29/11:30am 25.4 23.9 11.9 43 7.7 NW 11 19 6 10 1018.4 1018.3 0.0
29/11:00am 24.1 22.3 12.1 47 6.8 NNW 13 24 7 13 1019.0 1018.9 0.0
29/10:30am 24.5 22.5 14.0 52 6.2 N 17 28 9 15 1019.4 1019.3 0.0
29/10:00am 22.8 19.9 12.4 52 5.9 N 19 26 10 14 1019.9 1019.8 0.0
29/09:30am 21.9 19.1 12.7 56 5.2 N 19 26 10 14 1020.2 1020.1 0.0
29/09:00am 20.5 17.6 12.2 59 4.6 NNW 19 22 10 12 1020.6 1020.5 0.0
29/08:30am 18.9 18.3 12.2 65 3.7 N 7 9 4 5 1020.9 1020.8 0.0
29/08:00am 16.7 16.3 12.3 75 2.4 WNW 6 9 3 5 1021.4 1021.3 0.0
29/07:30am 14.4 13.7 11.4 82 1.6 NW 6 9 3 5 1021.4 1021.3 0.0
29/07:00am 12.5 11.5 10.9 90 0.8 WNW 7 11 4 6 1021.4 1021.3 0.0
29/06:30am 10.6 9.8 9.5 93 0.6 W 4 9 2 5 1021.2 1021.1 0.0
29/06:00am 9.2 8.8 8.1 93 0.5 CALM 0 0 0 0 1020.9 1020.8 0.0
29/05:30am 7.6 6.3 6.1 90 0.7 NW 2 6 1 3 1020.6 1020.5 0.0
29/05:00am 8.8 7.1 7.7 93 0.5 W 6 6 3 3 1020.3 1020.2 0.0
29/04:30am 9.1 7.5 7.9 92 0.6 W 6 7 3 4 1020.1 1020.0 0.0
29/04:00am 9.1 7.8 7.7 91 0.7 W 4 6 2 3 1019.7 1019.6 0.0
29/03:30am 10.2 8.7 9.0 92 0.6 W 7 11 4 6 1019.6 1019.5 0.0
29/03:00am 10.1 8.7 8.7 91 0.7 WNW 6 6 3 3 1019.6 1019.5 0.0
29/02:30am 10.9 9.5 9.7 92 0.6 WNW 7 7 4 4 1019.7 1019.6 0.0
29/02:00am 10.7 9.3 9.5 92 0.6 WNW 7 7 4 4 1020.0 1019.9 0.0
29/01:30am 10.4 8.9 9.3 93 0.5 W 7 9 4 5 1020.3 1020.2 0.0
29/01:00am 9.9 9.1 8.3 90 0.8 W 2 7 1 4 1020.7 1020.6 0.0
29/12:30am 10.2 9.9 8.6 90 0.8 CALM 0 0 0 0 1020.9 1020.8 0.0
29/12:00am 10.1 9.7 8.2 88 0.9 CALM 0 0 0 0 1021.3 1021.2 0.0
 
Date/Time
EST
Temp
°C
App
Temp
°C
Dew
Point
Rel
Hum
%
Delta-T
°C
Wind Press
QNH
hPa
Press
MSL
hPa
Rain
since 9 am
mm
Dir
 
Spd
km/h
Gust
km/h
Spd
kts
Gust
kts
28/11:30pm 10.7 10.4 8.8 88 0.9 CALM 0 0 0 0 1021.4 1021.3 0.0
28/11:00pm 11.1 10.2 9.2 88 0.9 SW 4 7 2 4 1021.5 1021.4 0.0
28/10:30pm 11.3 9.8 9.2 87 1.1 SW 7 7 4 4 1021.4 1021.3 0.0
28/10:00pm 12.1 11.0 9.8 86 1.2 S 6 7 3 4 1021.3 1021.2 0.0
28/09:30pm 12.6 11.5 10.0 84 1.3 S 6 7 3 4 1021.3 1021.2 0.0
28/09:00pm 13.7 12.6 10.5 81 1.7 SSE 7 9 4 5 1021.3 1021.2 0.0
28/08:30pm 14.6 13.5 10.6 77 2.1 SE 7 9 4 5 1021.2 1021.1 0.0
28/08:00pm 14.4 13.4 10.2 76 2.2 SE 6 9 3 5 1021.0 1020.9 0.0
28/07:30pm 14.7 13.1 10.3 75 2.3 E 9 9 5 5 1020.8 1020.7 0.0
28/07:00pm 14.7 12.7 10.3 75 2.3 E 11 11 6 6 1020.3 1020.2 0.0
28/06:30pm 15.2 12.7 9.8 70 2.8 E 13 15 7 8 1020.1 1020.0 0.0
28/06:00pm 16.6 13.7 9.5 63 3.7 E 15 17 8 9 1019.8 1019.7 0.0
28/05:30pm 18.8 15.5 9.6 55 4.9 E 17 20 9 11 1019.6 1019.5 0.0
28/05:00pm 20.6 16.8 9.8 50 5.8 E 20 24 11 13 1019.5 1019.4 0.0
28/04:30pm 21.9 18.8 10.4 48 6.3 ESE 17 24 9 13 1019.4 1019.3 0.0
28/04:00pm 22.8 19.2 9.9 44 7.0 E 19 24 10 13 1019.3 1019.2 0.0
28/03:30pm 23.6 20.5 10.3 43 7.3 E 17 24 9 13 1019.3 1019.2 0.0
28/03:00pm 23.8 20.5 9.4 40 7.8 E 17 22 9 12 1019.4 1019.3 0.0
28/02:30pm 24.0 20.2 9.2 39 8.0 ESE 19 28 10 15 1019.6 1019.5 0.0
28/02:00pm 23.6 20.3 8.1 37 8.2 ESE 15 20 8 11 1019.7 1019.6 0.0
28/01:30pm 22.8 20.8 7.0 36 8.2 SSE 7 11 4 6 1020.0 1019.9 0.0
28/01:00pm 24.5 22.8 7.6 34 8.9 SE 6 11 3 6 1020.3 1020.2 0.0
28/12:30pm 23.1 20.7 7.2 36 8.3 S 9 20 5 11 1020.6 1020.5 0.0
28/12:00pm 21.9 19.2 7.3 39 7.5 S 11 19 6 10 1021.0 1020.9 0.0
28/11:30am 23.5 21.7 9.5 41 7.6 SE 9 17 5 9 1021.4 1021.3 0.0
28/11:00am 21.7 18.5 5.2 34 8.1 S 11 20 6 11 1021.9 1021.8 0.0
28/10:30am 22.7 20.3 8.8 41 7.4 SE 11 15 6 8 1022.3 1022.2 0.0
28/10:00am 21.3 18.7 7.9 42 6.9 SSE 11 17 6 9 1022.6 1022.5 0.0
28/09:30am 21.7 19.6 9.9 47 6.4 SE 11 19 6 10 1022.7 1022.6 0.0
28/09:00am 20.5 19.7 13.0 62 4.2 SSW 9 17 5 9 1022.8 1022.7 5.8
28/08:30am 19.5 19.1 13.0 66 3.7 SSW 7 13 4 7 1022.8 1022.7 5.8
28/08:00am 18.4 17.7 13.3 72 2.9 SW 9 13 5 7 1022.8 1022.7 5.8
28/07:30am 16.7 16.1 12.3 75 2.4 W 7 9 4 5 1022.6 1022.5 5.8
28/07:00am 15.8 14.9 12.5 81 1.8 WNW 9 13 5 7 1022.5 1022.4 5.8
28/06:30am 14.4 13.9 12.8 90 0.9 NW 7 9 4 5 1022.2 1022.1 5.8
28/06:00am 11.7 10.4 10.1 90 0.8 NNW 7 9 4 5 1022.0 1021.9 5.8
28/05:30am 11.9 11.9 9.8 87 1.1 CALM 0 4 0 2 1021.5 1021.4 5.8
28/05:00am 12.1 11.5 9.1 82 1.5 SSW 2 6 1 3 1021.5 1021.4 5.8
28/04:30am 14.0 12.7 11.2 83 1.5 S 9 13 5 7 1021.4 1021.3 5.8
28/04:00am 15.3 13.4 11.7 79 1.9 SSW 13 19 7 10 1021.1 1021.0 5.8
28/03:30am 15.2 13.7 11.8 80 1.8 SSW 11 17 6 9 1021.0 1020.9 5.8
28/03:00am 15.7 14.3 12.1 79 2.0 SSW 11 15 6 8 1021.1 1021.0 5.8
28/02:30am 15.4 14.4 12.3 82 1.7 SW 9 11 5 6 1021.3 1021.2 5.8
28/02:00am 15.2 14.1 12.0 81 1.7 SW 9 13 5 7 1021.5 1021.4 5.8
28/01:30am 16.0 15.0 12.2 78 2.1 SSW 9 13 5 7 1021.4 1021.3 5.8
28/01:00am 15.8 14.9 12.7 82 1.7 S 9 15 5 8 1021.5 1021.4 5.8
28/12:30am 16.4 15.5 12.6 78 2.1 SSW 9 15 5 8 1021.7 1021.6 5.8
28/12:00am 15.9 15.1 12.8 82 1.7 SW 9 13 5 7 1022.0 1021.9 5.8
 
Date/Time
EST
Temp
°C
App
Temp
°C
Dew
Point
Rel
Hum
%
Delta-T
°C
Wind Press
QNH
hPa
Press
MSL
hPa
Rain
since 9 am
mm
Dir
 
Spd
km/h
Gust
km/h
Spd
kts
Gust
kts
27/11:30pm 16.3 15.2 13.2 82 1.7 SW 11 15 6 8 1022.2 1022.1 5.8
27/11:00pm 16.0 15.3 13.1 83 1.6 SW 9 13 5 7 1022.1 1022.0 5.8
27/10:30pm 16.2 15.5 13.3 83 1.6 SW 9 11 5 6 1021.9 1021.8 5.8
27/10:00pm 15.7 15.3 13.0 84 1.5 SW 7 7 4 4 1021.7 1021.6 5.8
27/09:30pm 16.5 15.7 13.0 80 1.9 SSW 9 11 5 6 1021.5 1021.4 5.8
27/09:00pm 16.8 16.1 13.1 79 2.1 SSW 9 15 5 8 1021.2 1021.1 5.8

Other Formats:

Comma delimited format used in spreadsheet applications
http://www.bom.gov.au/fwo/IDN60801/IDN60801.94573.axf

JavaScript Object Notation format (JSON) in row-major order
http://www.bom.gov.au/fwo/IDN60801/IDN60801.94573.json